createdAt,value
2022-10-13T00:00:15.957Z,12.30
2022-10-13T00:01:22.481Z,12.30
2022-10-13T00:02:25.965Z,12.30
2022-10-13T00:03:28.287Z,12.30
2022-10-13T00:04:31.621Z,12.30
2022-10-13T00:05:42.187Z,12.30
2022-10-13T00:06:45.551Z,12.30
2022-10-13T00:07:48.777Z,12.30
2022-10-13T00:08:56.644Z,12.30
2022-10-13T00:10:01.140Z,12.30
2022-10-13T00:11:13.280Z,12.30
2022-10-13T00:12:15.977Z,12.30
2022-10-13T00:13:20.708Z,12.20
2022-10-13T00:14:23.083Z,12.20
2022-10-13T00:15:26.466Z,12.20
2022-10-13T00:16:31.282Z,12.20
2022-10-13T00:17:36.419Z,12.20
2022-10-13T00:18:40.340Z,12.20
2022-10-13T00:19:43.060Z,12.20
2022-10-13T00:20:48.752Z,12.20
2022-10-13T00:21:53.120Z,12.20
2022-10-13T00:22:59.012Z,12.20
2022-10-13T00:24:02.818Z,12.20
2022-10-13T00:25:07.784Z,12.20
2022-10-13T00:26:14.139Z,12.20
2022-10-13T00:27:17.432Z,12.20
2022-10-13T00:28:20.514Z,12.20
2022-10-13T00:29:23.951Z,12.20
2022-10-13T00:30:26.285Z,12.30
2022-10-13T00:31:33.021Z,12.30
2022-10-13T00:32:35.749Z,12.30
2022-10-13T00:33:42.536Z,12.30
2022-10-13T00:34:44.867Z,12.30
2022-10-13T00:35:50.333Z,12.30
2022-10-13T00:36:53.373Z,12.30
2022-10-13T00:37:56.743Z,12.30
2022-10-13T00:38:59.369Z,12.30
2022-10-13T00:40:04.277Z,12.30
2022-10-13T00:41:07.455Z,12.30
2022-10-13T00:42:13.371Z,12.30
2022-10-13T00:43:18.878Z,12.40
2022-10-13T00:45:01.671Z,12.30
2022-10-13T00:46:05.092Z,12.40
2022-10-13T00:47:07.485Z,12.40
2022-10-13T00:48:12.399Z,12.40
2022-10-13T00:49:16.285Z,12.40
2022-10-13T00:50:27.835Z,12.40
2022-10-13T00:51:39.876Z,12.40
2022-10-13T00:52:43.469Z,12.40
2022-10-13T00:53:49.285Z,12.40
2022-10-13T00:54:53.697Z,12.30
2022-10-13T00:55:59.249Z,12.30
2022-10-13T00:57:03.963Z,12.30
2022-10-13T00:58:11.252Z,12.30
2022-10-13T00:59:23.061Z,12.30
2022-10-13T01:00:27.243Z,12.30
2022-10-13T01:01:29.873Z,12.30
2022-10-13T01:02:38.943Z,12.30
2022-10-13T01:03:41.643Z,12.30
2022-10-13T01:04:48.183Z,12.30
2022-10-13T01:05:53.930Z,12.30
2022-10-13T01:06:57.864Z,12.30
2022-10-13T01:08:01.291Z,12.30
2022-10-13T01:09:05.217Z,12.30
2022-10-13T01:10:08.618Z,12.30
2022-10-13T01:11:34.391Z,12.30
2022-10-13T01:12:49.858Z,12.30
2022-10-13T01:14:02.978Z,12.30
2022-10-13T01:15:13.090Z,12.30
2022-10-13T01:16:24.567Z,12.30
2022-10-13T01:17:37.067Z,12.30
2022-10-13T01:18:53.558Z,12.30
2022-10-13T01:20:44.139Z,12.30
2022-10-13T01:21:57.378Z,12.30
2022-10-13T01:23:33.501Z,12.30
2022-10-13T01:24:47.868Z,12.30
2022-10-13T01:26:38.986Z,12.30
2022-10-13T01:28:08.158Z,12.30
2022-10-13T01:29:38.041Z,12.30
2022-10-13T01:30:49.785Z,12.30
2022-10-13T01:32:00.391Z,12.30
2022-10-13T01:33:29.168Z,12.30
2022-10-13T01:34:40.738Z,12.30
2022-10-13T01:36:04.789Z,12.30
2022-10-13T01:37:22.438Z,12.30
2022-10-13T01:38:36.354Z,12.30
2022-10-13T01:39:44.587Z,12.30
2022-10-13T01:41:00.632Z,12.30
2022-10-13T01:42:13.288Z,12.30
2022-10-13T01:43:21.747Z,12.30
2022-10-13T01:44:33.071Z,12.30
2022-10-13T01:45:42.769Z,12.30
2022-10-13T01:46:51.435Z,12.30
2022-10-13T01:47:58.362Z,12.30
2022-10-13T01:49:11.524Z,12.30
2022-10-13T01:50:16.181Z,12.30
2022-10-13T01:51:23.268Z,12.30
2022-10-13T01:52:35.839Z,12.30
2022-10-13T01:53:39.746Z,12.30
2022-10-13T01:54:42.205Z,12.30
2022-10-13T01:55:52.538Z,12.30
2022-10-13T01:56:56.426Z,12.30
2022-10-13T01:58:00.118Z,12.30
2022-10-13T01:59:07.743Z,12.30
2022-10-13T02:00:15.116Z,12.30
2022-10-13T02:01:39.409Z,12.30
2022-10-13T02:03:06.726Z,12.30
2022-10-13T02:04:27.185Z,12.30
2022-10-13T02:05:40.316Z,12.30
2022-10-13T02:06:52.927Z,12.30
2022-10-13T02:08:02.685Z,12.30
2022-10-13T02:09:14.576Z,12.30
2022-10-13T02:10:27.793Z,12.30
2022-10-13T02:11:33.632Z,12.30
2022-10-13T02:12:44.731Z,12.30
2022-10-13T02:13:54.501Z,12.30
2022-10-13T02:15:00.195Z,12.30
2022-10-13T02:16:02.927Z,12.30
2022-10-13T02:17:08.491Z,12.30
2022-10-13T02:18:18.964Z,12.30
2022-10-13T02:19:24.719Z,12.30
2022-10-13T02:20:27.367Z,12.30
2022-10-13T02:21:31.738Z,12.20
2022-10-13T02:22:42.466Z,12.20
2022-10-13T02:23:48.329Z,12.20
2022-10-13T02:24:50.817Z,12.20
2022-10-13T02:25:56.320Z,12.20
2022-10-13T02:26:58.828Z,12.20
2022-10-13T02:28:02.945Z,12.20
2022-10-13T02:29:11.093Z,12.20
2022-10-13T02:30:25.027Z,12.20
2022-10-13T02:31:29.571Z,12.20
2022-10-13T02:32:35.000Z,12.20
2022-10-13T02:33:38.781Z,12.20
2022-10-13T02:34:42.113Z,12.20
2022-10-13T02:35:44.573Z,12.20
2022-10-13T02:36:48.368Z,12.20
2022-10-13T02:37:53.415Z,12.20
2022-10-13T02:38:56.811Z,12.20
2022-10-13T02:39:59.171Z,12.20
2022-10-13T02:41:03.227Z,12.20
2022-10-13T02:42:08.862Z,12.20
2022-10-13T02:43:12.278Z,12.20
2022-10-13T02:44:14.525Z,12.10
2022-10-13T02:45:18.042Z,12.10
2022-10-13T02:46:20.506Z,12.10
2022-10-13T02:47:24.224Z,12.10
2022-10-13T02:48:26.890Z,12.10
2022-10-13T02:49:31.738Z,12.10
2022-10-13T02:50:34.394Z,12.10
2022-10-13T02:51:40.066Z,12.10
2022-10-13T02:52:42.963Z,12.10
2022-10-13T02:53:46.608Z,12.10
2022-10-13T02:54:49.010Z,12.10
2022-10-13T02:55:52.362Z,12.10
2022-10-13T02:56:54.860Z,12.10
2022-10-13T02:57:58.384Z,12.10
2022-10-13T02:59:03.674Z,12.10
2022-10-13T03:00:09.118Z,12.10
2022-10-13T03:01:14.564Z,12.10
2022-10-13T03:02:19.131Z,12.10
2022-10-13T03:03:21.669Z,12.10
2022-10-13T03:04:25.580Z,12.10
2022-10-13T03:05:29.819Z,12.10
2022-10-13T03:06:33.223Z,12.10
2022-10-13T03:07:36.815Z,12.10
2022-10-13T03:08:39.420Z,12.10
2022-10-13T03:09:42.913Z,12.10
2022-10-13T03:10:45.219Z,12.10
2022-10-13T03:11:48.688Z,12.10
2022-10-13T03:12:51.025Z,12.00
2022-10-13T03:13:54.252Z,12.00
2022-10-13T03:14:56.666Z,12.00
2022-10-13T03:15:59.927Z,12.00
2022-10-13T03:17:02.770Z,12.00
2022-10-13T03:18:06.429Z,12.00
2022-10-13T03:19:08.831Z,12.00
2022-10-13T03:20:12.333Z,12.00
2022-10-13T03:21:16.081Z,12.00
2022-10-13T03:22:20.124Z,12.00
2022-10-13T03:23:22.908Z,12.00
2022-10-13T03:24:26.561Z,12.00
2022-10-13T03:25:29.213Z,12.00
2022-10-13T03:26:33.433Z,12.10
2022-10-13T03:27:36.053Z,12.10
2022-10-13T03:28:39.554Z,12.10
2022-10-13T03:29:42.045Z,12.10
2022-10-13T03:30:48.181Z,12.10
2022-10-13T03:31:50.679Z,12.10
2022-10-13T03:32:54.291Z,12.10
2022-10-13T03:33:56.740Z,12.10
2022-10-13T03:35:00.280Z,12.10
2022-10-13T03:36:05.772Z,12.10
2022-10-13T03:37:10.750Z,12.10
2022-10-13T03:38:16.927Z,12.10
2022-10-13T03:39:20.308Z,12.10
2022-10-13T03:40:22.820Z,12.10
2022-10-13T03:41:26.143Z,12.10
2022-10-13T03:42:28.554Z,12.10
2022-10-13T03:43:31.906Z,12.10
2022-10-13T03:44:36.733Z,12.10
2022-10-13T03:45:42.090Z,12.10
2022-10-13T03:46:44.765Z,12.10
2022-10-13T03:47:48.620Z,12.10
2022-10-13T03:48:53.177Z,12.10
2022-10-13T03:49:57.037Z,12.10
2022-10-13T03:50:59.600Z,12.10
2022-10-13T03:52:02.983Z,12.10
2022-10-13T03:53:06.789Z,12.10
2022-10-13T03:54:12.426Z,12.10
2022-10-13T03:55:14.840Z,12.10
2022-10-13T03:56:21.467Z,12.10
2022-10-13T03:57:26.775Z,12.10
2022-10-13T03:58:30.446Z,12.10
2022-10-13T03:59:36.751Z,12.10
2022-10-13T04:00:39.542Z,12.10
2022-10-13T04:01:42.905Z,12.20
2022-10-13T04:02:45.296Z,12.10
2022-10-13T04:03:48.631Z,12.20
2022-10-13T04:04:52.024Z,12.20
2022-10-13T04:05:54.385Z,12.20
2022-10-13T04:06:58.391Z,12.20
2022-10-13T04:08:00.730Z,12.20
2022-10-13T04:09:07.955Z,12.20
2022-10-13T04:10:11.599Z,12.20
2022-10-13T04:11:20.172Z,12.20
2022-10-13T04:12:26.402Z,12.20
2022-10-13T04:13:30.162Z,12.20
2022-10-13T04:14:32.735Z,12.20
2022-10-13T04:15:44.566Z,12.20
2022-10-13T04:16:49.835Z,12.20
2022-10-13T04:17:53.153Z,12.20
2022-10-13T04:19:03.102Z,12.20
2022-10-13T04:20:07.639Z,12.20
2022-10-13T04:21:12.697Z,12.20
2022-10-13T04:22:14.999Z,12.20
2022-10-13T04:24:28.553Z,12.20
2022-10-13T04:25:31.928Z,12.20
2022-10-13T04:26:36.503Z,12.20
2022-10-13T04:27:42.957Z,12.20
2022-10-13T04:28:46.305Z,12.20
2022-10-13T04:29:49.747Z,12.20
2022-10-13T04:30:54.685Z,12.20
2022-10-13T04:31:59.887Z,12.20
2022-10-13T04:33:02.420Z,12.20
2022-10-13T04:34:07.656Z,12.20
2022-10-13T04:35:10.170Z,12.20
2022-10-13T04:36:15.075Z,12.20
2022-10-13T04:37:17.553Z,12.20
2022-10-13T04:38:20.992Z,12.20
2022-10-13T04:39:23.486Z,12.20
2022-10-13T04:40:28.960Z,12.20
2022-10-13T04:41:31.523Z,12.20
2022-10-13T04:42:35.680Z,12.20
2022-10-13T04:43:38.386Z,12.20
2022-10-13T04:44:44.101Z,12.20
2022-10-13T04:45:47.324Z,12.20
2022-10-13T04:46:50.654Z,12.20
2022-10-13T04:47:53.178Z,12.20
2022-10-13T04:48:58.902Z,12.20
2022-10-13T04:50:08.855Z,12.20
2022-10-13T04:51:17.018Z,12.20
2022-10-13T04:52:19.721Z,12.20
2022-10-13T04:53:23.697Z,12.20
2022-10-13T04:54:28.519Z,12.20
2022-10-13T04:55:36.077Z,12.20
2022-10-13T04:56:38.377Z,12.20
2022-10-13T04:57:41.830Z,12.20
2022-10-13T04:58:46.893Z,12.20
2022-10-13T04:59:50.691Z,12.20
2022-10-13T05:00:53.171Z,12.30
2022-10-13T05:01:58.753Z,12.30
2022-10-13T05:03:03.546Z,12.30
2022-10-13T05:04:07.825Z,12.30
2022-10-13T05:05:11.623Z,12.30
2022-10-13T05:06:17.472Z,12.30
2022-10-13T05:07:23.419Z,12.30
2022-10-13T05:08:26.968Z,12.30
2022-10-13T05:09:29.399Z,12.30
2022-10-13T05:10:34.966Z,12.30
2022-10-13T05:11:37.491Z,12.30
2022-10-13T05:12:40.781Z,12.30
2022-10-13T05:13:43.111Z,12.30
2022-10-13T05:14:46.570Z,12.30
2022-10-13T05:15:48.979Z,12.30
2022-10-13T05:16:55.227Z,12.30
2022-10-13T05:17:59.450Z,12.30
2022-10-13T05:19:03.651Z,12.30
2022-10-13T05:20:07.412Z,12.30
2022-10-13T05:21:12.838Z,12.30
2022-10-13T05:22:15.285Z,12.30
2022-10-13T05:23:19.117Z,12.30
2022-10-13T05:24:31.230Z,12.30
2022-10-13T05:25:38.916Z,12.30
2022-10-13T05:26:42.407Z,12.30
2022-10-13T05:27:46.441Z,12.30
2022-10-13T05:28:49.375Z,12.30
2022-10-13T05:29:52.793Z,12.30
2022-10-13T05:30:55.264Z,12.30
2022-10-13T05:32:01.059Z,12.30
2022-10-13T05:33:04.355Z,12.30
2022-10-13T05:34:07.954Z,12.30
2022-10-13T05:35:10.482Z,12.30
2022-10-13T05:36:21.443Z,12.30
2022-10-13T05:37:26.806Z,12.30
2022-10-13T05:38:31.420Z,12.30
2022-10-13T05:39:35.319Z,12.30
2022-10-13T05:40:40.352Z,12.30
2022-10-13T05:41:42.839Z,12.30
2022-10-13T05:42:51.262Z,12.30
2022-10-13T05:43:58.994Z,12.30
2022-10-13T05:45:02.342Z,12.30
2022-10-13T05:46:05.567Z,12.30
2022-10-13T05:47:12.904Z,12.30
2022-10-13T05:48:15.369Z,12.30
2022-10-13T05:49:19.196Z,12.30
2022-10-13T05:50:21.713Z,12.30
2022-10-13T05:51:29.307Z,12.30
2022-10-13T05:52:34.760Z,12.30
2022-10-13T05:53:43.472Z,12.30
2022-10-13T05:54:52.794Z,12.30
2022-10-13T05:56:06.172Z,12.30
2022-10-13T05:57:16.669Z,12.30
2022-10-13T05:58:19.637Z,12.30
2022-10-13T05:59:27.280Z,12.30
2022-10-13T06:00:30.700Z,12.30
2022-10-13T06:01:39.216Z,12.30
2022-10-13T06:02:47.004Z,12.30
2022-10-13T06:03:53.769Z,12.30
2022-10-13T06:04:58.228Z,12.30
2022-10-13T06:06:02.147Z,12.30
2022-10-13T06:07:05.013Z,12.30
2022-10-13T06:08:08.560Z,12.30
2022-10-13T06:09:12.850Z,12.30
2022-10-13T06:10:18.829Z,12.30
2022-10-13T06:11:23.160Z,12.30
2022-10-13T06:12:26.636Z,12.30
2022-10-13T06:13:29.037Z,12.30
2022-10-13T06:14:32.415Z,12.30
2022-10-13T06:15:38.486Z,12.30
2022-10-13T06:16:42.856Z,12.30
2022-10-13T06:17:45.387Z,12.30
2022-10-13T06:18:49.165Z,12.30
2022-10-13T06:19:52.641Z,12.30
2022-10-13T06:20:55.108Z,12.30
2022-10-13T06:22:03.267Z,12.30
2022-10-13T06:23:06.066Z,12.30
2022-10-13T06:24:09.634Z,12.30
2022-10-13T06:25:12.047Z,12.30
2022-10-13T06:26:15.546Z,12.30
2022-10-13T06:27:20.300Z,12.30
2022-10-13T06:28:25.268Z,12.30
2022-10-13T06:29:27.736Z,12.30
2022-10-13T06:30:31.125Z,12.30
2022-10-13T06:31:33.569Z,12.30
2022-10-13T06:32:41.038Z,12.30
2022-10-13T06:33:43.398Z,12.30
2022-10-13T06:34:49.670Z,12.30
2022-10-13T06:35:52.635Z,12.30
2022-10-13T06:36:56.204Z,12.30
2022-10-13T06:37:58.623Z,12.30
2022-10-13T06:39:02.099Z,12.30
2022-10-13T06:40:05.681Z,12.30
2022-10-13T06:41:09.120Z,12.30
2022-10-13T06:42:11.899Z,12.40
2022-10-13T06:43:16.621Z,12.40
2022-10-13T06:44:19.093Z,12.40
2022-10-13T06:45:22.551Z,12.40
2022-10-13T06:46:25.165Z,12.40
2022-10-13T06:47:28.591Z,12.40
2022-10-13T06:48:31.166Z,12.40
2022-10-13T06:49:37.949Z,12.40
2022-10-13T06:50:42.890Z,12.40
2022-10-13T06:51:46.558Z,12.40
2022-10-13T06:52:49.631Z,12.40
2022-10-13T06:53:53.024Z,12.50
2022-10-13T06:54:59.518Z,12.50
2022-10-13T06:56:08.372Z,12.50
2022-10-13T06:57:12.389Z,12.50
2022-10-13T06:58:17.880Z,12.50
2022-10-13T06:59:21.217Z,12.50
2022-10-13T07:00:25.031Z,12.50
2022-10-13T07:01:27.721Z,12.50
2022-10-13T07:02:31.068Z,12.50
2022-10-13T07:03:34.640Z,12.50
2022-10-13T07:04:37.067Z,12.60
2022-10-13T07:05:40.522Z,12.60
2022-10-13T07:06:42.851Z,12.60
2022-10-13T07:07:46.772Z,12.60
2022-10-13T07:08:52.081Z,12.60
2022-10-13T07:09:56.318Z,12.60
2022-10-13T07:10:58.937Z,12.60
2022-10-13T07:12:02.367Z,12.60
2022-10-13T07:13:04.835Z,12.60
2022-10-13T07:14:09.572Z,12.60
2022-10-13T07:15:11.950Z,12.60
2022-10-13T07:16:16.256Z,12.60
2022-10-13T07:17:19.567Z,12.60
2022-10-13T07:18:23.125Z,12.60
2022-10-13T07:19:26.679Z,12.60
2022-10-13T07:20:29.049Z,12.60
2022-10-13T07:21:33.068Z,12.70
2022-10-13T07:22:36.435Z,12.70
2022-10-13T07:23:39.705Z,12.70
2022-10-13T07:24:43.640Z,12.70
2022-10-13T07:25:45.908Z,12.70
2022-10-13T07:26:49.311Z,12.70
2022-10-13T07:27:51.693Z,12.80
2022-10-13T07:28:55.207Z,12.80
2022-10-13T07:30:01.162Z,12.80
2022-10-13T07:31:11.918Z,12.80
2022-10-13T07:32:15.664Z,12.80
2022-10-13T07:33:19.500Z,12.80
2022-10-13T07:34:22.608Z,12.80
2022-10-13T07:35:30.508Z,12.80
2022-10-13T07:36:33.583Z,12.90
2022-10-13T07:37:38.150Z,12.90
2022-10-13T07:38:41.723Z,12.90
2022-10-13T07:39:44.260Z,12.90
2022-10-13T07:40:47.672Z,12.90
2022-10-13T07:41:51.300Z,12.90
2022-10-13T07:42:58.090Z,12.90
2022-10-13T07:44:01.389Z,12.90
2022-10-13T07:45:07.834Z,13.00
2022-10-13T07:46:13.335Z,13.00
2022-10-13T07:47:17.371Z,13.00
2022-10-13T07:48:20.180Z,13.00
2022-10-13T07:49:23.830Z,13.00
2022-10-13T07:50:29.614Z,13.10
2022-10-13T07:51:32.983Z,13.10
2022-10-13T07:52:38.476Z,13.10
2022-10-13T07:53:42.806Z,13.10
2022-10-13T07:54:46.322Z,13.10
2022-10-13T07:55:50.828Z,13.20
2022-10-13T07:56:57.878Z,13.20
2022-10-13T07:58:02.626Z,13.20
2022-10-13T07:59:09.511Z,13.20
2022-10-13T08:00:15.455Z,13.30
2022-10-13T08:01:18.277Z,13.30
2022-10-13T08:02:21.806Z,13.30
2022-10-13T08:03:24.639Z,13.30
2022-10-13T08:04:31.212Z,13.40
2022-10-13T08:05:33.649Z,13.40
2022-10-13T08:07:47.789Z,13.40
2022-10-13T08:08:50.515Z,13.40
2022-10-13T08:09:55.729Z,13.50
2022-10-13T08:11:02.305Z,13.50
2022-10-13T08:12:08.457Z,13.50
2022-10-13T08:13:14.667Z,13.50
2022-10-13T08:14:18.740Z,13.50
2022-10-13T08:15:24.595Z,13.50
2022-10-13T08:16:31.072Z,13.60
2022-10-13T08:17:37.025Z,13.60
2022-10-13T08:18:39.551Z,13.60
2022-10-13T08:19:45.636Z,13.70
2022-10-13T08:20:49.523Z,13.70
2022-10-13T08:21:59.161Z,13.70
2022-10-13T08:23:03.465Z,13.70
2022-10-13T08:24:12.581Z,13.80
2022-10-13T08:25:16.251Z,13.80
2022-10-13T08:26:22.429Z,13.80
2022-10-13T08:27:47.628Z,13.90
2022-10-13T08:29:09.621Z,13.90
2022-10-13T08:30:14.275Z,14.00
2022-10-13T08:31:18.995Z,14.00
2022-10-13T08:32:24.058Z,14.10
2022-10-13T08:33:27.536Z,14.10
2022-10-13T08:34:30.970Z,14.10
2022-10-13T08:35:35.845Z,14.20
2022-10-13T08:36:40.110Z,14.20
2022-10-13T08:37:43.777Z,14.20
2022-10-13T08:38:46.281Z,14.30
2022-10-13T08:39:50.117Z,14.30
2022-10-13T08:40:53.180Z,14.40
2022-10-13T08:41:57.972Z,14.40
2022-10-13T08:43:00.760Z,14.50
2022-10-13T08:44:56.696Z,14.50
2022-10-13T08:45:41.298Z,14.50
2022-10-13T08:46:55.661Z,14.50
2022-10-13T08:48:03.429Z,14.60
2022-10-13T08:49:07.441Z,14.60
2022-10-13T08:50:17.141Z,14.60
2022-10-13T08:51:23.073Z,14.60
2022-10-13T08:52:28.636Z,14.60
2022-10-13T08:53:34.638Z,14.60
2022-10-13T08:54:38.464Z,14.60
2022-10-13T08:55:49.934Z,14.60
2022-10-13T08:56:54.608Z,14.60
2022-10-13T08:57:59.710Z,14.60
2022-10-13T08:59:06.720Z,14.60
2022-10-13T09:00:13.398Z,14.60
2022-10-13T09:01:21.111Z,14.50
2022-10-13T09:02:30.108Z,14.50
2022-10-13T09:03:37.887Z,14.50
2022-10-13T09:04:48.712Z,14.50
2022-10-13T09:06:06.505Z,14.50
2022-10-13T09:07:15.959Z,14.50
2022-10-13T09:08:22.661Z,14.50
2022-10-13T09:09:25.218Z,14.50
2022-10-13T09:10:28.522Z,14.50
2022-10-13T09:11:35.204Z,14.50
2022-10-13T09:12:37.745Z,14.50
2022-10-13T09:13:41.542Z,14.50
2022-10-13T09:15:01.520Z,14.50
2022-10-13T09:16:04.227Z,14.50
2022-10-13T09:17:19.783Z,14.50
2022-10-13T09:18:31.831Z,14.60
2022-10-13T09:19:36.848Z,14.60
2022-10-13T09:20:41.864Z,14.60
2022-10-13T09:21:45.437Z,14.60
2022-10-13T09:23:04.294Z,14.60
2022-10-13T09:24:08.184Z,14.60
2022-10-13T09:25:20.613Z,14.70
2022-10-13T09:26:25.321Z,14.60
2022-10-13T09:27:28.755Z,14.60
2022-10-13T09:28:34.133Z,14.60
2022-10-13T09:29:37.493Z,14.60
2022-10-13T09:30:42.134Z,14.70
2022-10-13T09:31:46.072Z,14.70
2022-10-13T09:32:48.787Z,14.60
2022-10-13T09:34:02.854Z,14.60
2022-10-13T09:35:22.425Z,14.60
2022-10-13T09:36:26.143Z,14.60
2022-10-13T09:37:29.468Z,14.60
2022-10-13T09:38:36.838Z,14.70
2022-10-13T09:39:40.235Z,14.70
2022-10-13T09:41:53.426Z,14.80
2022-10-13T09:42:55.863Z,14.80
2022-10-13T09:44:08.227Z,14.80
2022-10-13T09:45:16.582Z,14.90
2022-10-13T09:46:25.280Z,15.00
2022-10-13T09:47:33.330Z,15.10
2022-10-13T09:48:38.209Z,15.20
2022-10-13T09:49:46.373Z,15.30
2022-10-13T09:50:52.248Z,15.40
2022-10-13T09:52:02.105Z,15.50
2022-10-13T09:53:24.982Z,15.60
2022-10-13T09:54:39.100Z,15.70
2022-10-13T09:55:46.655Z,15.70
2022-10-13T09:56:58.256Z,15.80
2022-10-13T09:58:08.200Z,15.80
2022-10-13T09:59:33.159Z,15.80
2022-10-13T10:00:37.775Z,15.80
2022-10-13T10:01:49.944Z,15.80
2022-10-13T10:02:59.355Z,15.80
2022-10-13T10:04:12.334Z,15.80
2022-10-13T10:05:28.306Z,15.80
2022-10-13T10:06:35.063Z,15.80
2022-10-13T10:07:39.354Z,15.80
2022-10-13T10:09:02.763Z,15.80
2022-10-13T10:10:18.103Z,15.80
2022-10-13T10:11:28.637Z,15.80
2022-10-13T10:12:36.999Z,15.80
2022-10-13T10:13:40.333Z,15.80
2022-10-13T10:14:42.974Z,15.80
2022-10-13T10:15:55.883Z,15.90
2022-10-13T10:17:08.634Z,15.90
2022-10-13T10:18:18.250Z,15.90
2022-10-13T10:19:30.685Z,15.90
2022-10-13T10:21:04.130Z,15.90
2022-10-13T10:22:14.409Z,15.90
2022-10-13T10:23:28.182Z,16.00
2022-10-13T10:24:42.270Z,16.00
2022-10-13T10:25:49.786Z,16.10
2022-10-13T10:26:57.060Z,16.20
2022-10-13T10:28:34.665Z,16.20
2022-10-13T10:29:47.776Z,16.40
2022-10-13T10:31:00.157Z,16.60
2022-10-13T10:32:27.627Z,16.80
2022-10-13T10:33:48.380Z,17.00
2022-10-13T10:34:58.257Z,17.30
2022-10-13T10:36:16.840Z,17.60
2022-10-13T10:37:29.575Z,17.90
2022-10-13T10:38:42.412Z,18.10
2022-10-13T10:40:03.641Z,18.40
2022-10-13T10:41:17.789Z,18.60
2022-10-13T10:43:04.324Z,18.80
2022-10-13T10:44:11.993Z,18.90
2022-10-13T10:45:21.634Z,19.00
2022-10-13T10:46:29.444Z,19.10
2022-10-13T10:47:42.177Z,19.10
2022-10-13T10:48:50.344Z,19.00
2022-10-13T10:50:00.161Z,18.90
2022-10-13T10:51:09.475Z,18.90
2022-10-13T10:52:29.398Z,18.80
2022-10-13T10:53:40.574Z,18.60
2022-10-13T10:54:50.109Z,18.50
2022-10-13T10:56:02.329Z,18.40
2022-10-13T10:57:16.338Z,18.20
2022-10-13T10:58:39.378Z,18.10
2022-10-13T10:59:58.327Z,18.00
2022-10-13T11:01:24.464Z,17.90
2022-10-13T11:02:44.579Z,17.80
2022-10-13T11:03:54.453Z,17.70
2022-10-13T11:05:05.265Z,17.70
2022-10-13T11:06:34.918Z,17.60
2022-10-13T11:07:59.155Z,17.60
2022-10-13T11:09:03.179Z,17.60
2022-10-13T11:10:22.905Z,17.60
2022-10-13T11:11:38.647Z,17.70
2022-10-13T11:13:22.357Z,17.60
2022-10-13T11:14:36.632Z,17.60
2022-10-13T11:15:45.805Z,17.60
2022-10-13T11:17:20.829Z,17.60
2022-10-13T11:19:06.854Z,17.50
2022-10-13T11:20:58.430Z,17.40
2022-10-13T11:22:14.723Z,17.40
2022-10-13T11:23:35.417Z,17.30
2022-10-13T11:25:05.009Z,17.20
2022-10-13T11:26:44.551Z,17.20
2022-10-13T11:27:50.691Z,17.10
2022-10-13T11:28:53.234Z,17.00
2022-10-13T11:29:59.965Z,17.00
2022-10-13T11:31:26.395Z,17.00
2022-10-13T11:32:55.967Z,16.90
2022-10-13T11:34:02.268Z,17.00
2022-10-13T11:35:21.609Z,17.00
2022-10-13T11:36:57.113Z,17.00
2022-10-13T11:38:24.981Z,17.20
2022-10-13T11:40:16.207Z,17.30
2022-10-13T11:41:30.365Z,17.40
2022-10-13T11:43:29.642Z,17.50
2022-10-13T11:44:38.050Z,17.60
2022-10-13T11:46:20.787Z,17.70
2022-10-13T11:47:56.776Z,17.80
2022-10-13T11:49:34.397Z,17.80
2022-10-13T11:50:44.281Z,17.80
2022-10-13T11:52:18.930Z,17.80
2022-10-13T11:53:28.433Z,17.80
2022-10-13T11:54:39.546Z,17.70
2022-10-13T11:55:51.171Z,17.70
2022-10-13T11:56:55.642Z,17.60
2022-10-13T11:58:10.968Z,17.60
2022-10-13T11:59:23.749Z,17.50
2022-10-13T12:00:27.441Z,17.50
2022-10-13T12:01:30.377Z,17.40
2022-10-13T12:02:33.756Z,17.40
2022-10-13T12:03:39.967Z,17.40
2022-10-13T12:05:06.626Z,17.40
2022-10-13T12:06:33.386Z,17.40
2022-10-13T12:07:43.040Z,17.40
2022-10-13T12:08:50.982Z,17.40
2022-10-13T12:09:57.479Z,17.40
2022-10-13T12:11:05.964Z,17.40
2022-10-13T12:12:17.507Z,17.40
2022-10-13T12:13:25.457Z,17.40
2022-10-13T12:16:00.785Z,17.30
2022-10-13T12:17:03.323Z,17.30
2022-10-13T12:18:23.747Z,17.30
2022-10-13T12:19:30.028Z,17.20
2022-10-13T12:20:33.691Z,17.20
2022-10-13T12:21:51.413Z,17.10
2022-10-13T12:22:56.391Z,17.10
2022-10-13T12:24:10.042Z,17.00
2022-10-13T12:25:20.102Z,17.00
2022-10-13T12:26:25.805Z,16.90
2022-10-13T12:27:32.669Z,16.90
2022-10-13T12:28:50.619Z,16.80
2022-10-13T12:29:54.029Z,16.80
2022-10-13T12:31:00.258Z,16.70
2022-10-13T12:32:04.157Z,16.70
2022-10-13T12:33:23.843Z,16.60
2022-10-13T12:34:31.865Z,16.60
2022-10-13T12:35:34.714Z,16.60
2022-10-13T12:36:38.230Z,16.50
2022-10-13T12:37:41.356Z,16.50
2022-10-13T12:38:50.824Z,16.50
2022-10-13T12:39:57.813Z,16.50
2022-10-13T12:41:00.174Z,16.50
2022-10-13T12:42:04.659Z,16.50
2022-10-13T12:43:17.715Z,16.50
2022-10-13T12:44:25.734Z,16.50
2022-10-13T12:45:34.021Z,16.50
2022-10-13T12:46:42.889Z,16.50
2022-10-13T12:47:51.464Z,16.50
2022-10-13T12:49:03.962Z,16.50
2022-10-13T12:50:39.119Z,16.50
2022-10-13T12:51:44.112Z,16.50
2022-10-13T12:52:47.847Z,16.60
2022-10-13T12:53:50.399Z,16.60
2022-10-13T12:54:59.247Z,16.60
2022-10-13T12:56:03.763Z,16.60
2022-10-13T12:57:22.906Z,16.70
2022-10-13T12:58:31.336Z,16.70
2022-10-13T12:59:35.599Z,16.70
2022-10-13T13:00:38.125Z,16.70
2022-10-13T13:01:42.099Z,16.70
2022-10-13T13:02:52.098Z,16.70
2022-10-13T13:03:59.782Z,16.70
2022-10-13T13:05:03.328Z,16.60
2022-10-13T13:06:39.652Z,16.60
2022-10-13T13:07:54.616Z,16.60
2022-10-13T13:09:32.238Z,16.60
2022-10-13T13:10:35.904Z,16.60
2022-10-13T13:11:43.315Z,16.60
2022-10-13T13:12:50.044Z,16.60
2022-10-13T13:14:12.658Z,16.60
2022-10-13T13:15:37.625Z,16.60
2022-10-13T13:16:40.144Z,16.70
2022-10-13T13:17:57.784Z,16.70
2022-10-13T13:19:02.367Z,16.70
2022-10-13T13:20:22.919Z,16.70
2022-10-13T13:21:25.424Z,16.70
2022-10-13T13:22:28.841Z,16.70
2022-10-13T13:23:34.436Z,16.70
2022-10-13T13:24:40.707Z,16.60
2022-10-13T13:25:47.979Z,16.60
2022-10-13T13:26:50.431Z,16.60
2022-10-13T13:27:54.348Z,16.60
2022-10-13T13:28:58.044Z,16.50
2022-10-13T13:30:01.504Z,16.50
2022-10-13T13:31:04.063Z,16.50
2022-10-13T13:32:07.421Z,16.50
2022-10-13T13:34:22.346Z,16.50
2022-10-13T13:35:27.859Z,16.50
2022-10-13T13:36:32.461Z,16.50
2022-10-13T13:37:38.721Z,16.40
2022-10-13T13:38:41.155Z,16.40
2022-10-13T13:39:47.031Z,16.40
2022-10-13T13:40:51.712Z,16.40
2022-10-13T13:41:54.043Z,16.30
2022-10-13T13:42:58.059Z,16.30
2022-10-13T13:44:06.381Z,16.30
2022-10-13T13:45:14.136Z,16.30
2022-10-13T13:46:20.044Z,16.20
2022-10-13T13:47:25.523Z,16.20
2022-10-13T13:48:27.993Z,16.20
2022-10-13T13:49:34.399Z,16.20
2022-10-13T13:50:37.828Z,16.20
2022-10-13T13:51:43.819Z,16.10
2022-10-13T13:52:47.286Z,16.10
2022-10-13T13:53:51.649Z,16.10
2022-10-13T13:54:56.144Z,16.00
2022-10-13T13:56:00.084Z,16.00
2022-10-13T13:57:03.386Z,16.00
2022-10-13T13:58:06.805Z,16.00
2022-10-13T13:59:10.208Z,15.90
2022-10-13T14:00:16.383Z,15.90
2022-10-13T14:01:24.935Z,15.90
2022-10-13T14:02:30.850Z,15.80
2022-10-13T14:03:33.237Z,15.80
2022-10-13T14:04:36.611Z,15.80
2022-10-13T14:05:41.589Z,15.80
2022-10-13T14:06:44.273Z,15.70
2022-10-13T14:07:47.610Z,15.70
2022-10-13T14:08:51.077Z,15.70
2022-10-13T14:09:59.369Z,15.70
2022-10-13T14:11:08.539Z,15.70
2022-10-13T14:12:11.936Z,15.60
2022-10-13T14:13:16.743Z,15.60
2022-10-13T14:14:22.627Z,15.60
2022-10-13T14:15:29.687Z,15.60
2022-10-13T14:16:32.530Z,15.60
2022-10-13T14:17:36.037Z,15.60
2022-10-13T14:18:39.567Z,15.60
2022-10-13T14:19:42.863Z,15.50
2022-10-13T14:20:46.264Z,15.50
2022-10-13T14:21:48.741Z,15.50
2022-10-13T14:22:54.389Z,15.50
2022-10-13T14:23:56.759Z,15.40
2022-10-13T14:25:00.288Z,15.40
2022-10-13T14:26:10.791Z,15.40
2022-10-13T14:27:19.783Z,15.40
2022-10-13T14:28:23.298Z,15.30
2022-10-13T14:29:27.654Z,15.30
2022-10-13T14:30:32.574Z,15.30
2022-10-13T14:31:38.277Z,15.30
2022-10-13T14:32:41.042Z,15.30
2022-10-13T14:33:44.529Z,15.20
2022-10-13T14:34:50.452Z,15.20
2022-10-13T14:36:02.111Z,15.20
2022-10-13T14:37:04.580Z,15.20
2022-10-13T14:38:08.165Z,15.20